Time;durP1;ratioP1;P1;durP2;ratioP2;P2;SDS_P1;SDS_P2;PMS_P1;PMS_P2;Temp;Humidity;BMP_temperature;BMP_pressure;BME280_temperature;BME280_humidity;BME280_pressure;Samples;Min_cycle;Max_cycle;Signal;HPM_P1;HPM_P2
2020/12/04 00:00:45;;;;;;;68.83;43.60;;;;;;;-0.15;82.64;97826.45;125163;1098;65141;-79
2020/12/04 00:03:11;;;;;;;74.40;47.65;;;;;;;-0.19;82.39;97832.72;125230;1098;65143;-77
2020/12/04 00:05:38;;;;;;;83.53;47.57;;;;;;;-0.23;82.18;97834.63;125130;1099;65345;-77
2020/12/04 00:08:04;;;;;;;75.95;45.40;;;;;;;-0.27;82.62;97834.82;125215;1098;65178;-78
2020/12/04 00:10:30;;;;;;;76.97;46.00;;;;;;;-0.31;82.38;97828.03;125180;1099;65141;-78
2020/12/04 00:12:57;;;;;;;75.90;44.63;;;;;;;-0.35;82.29;97827.28;125139;1098;65186;-78
2020/12/04 00:15:23;;;;;;;79.10;47.80;;;;;;;-0.39;82.56;97824.88;125253;1098;65630;-78
2020/12/04 00:17:50;;;;;;;79.20;47.23;;;;;;;-0.41;82.06;97817.08;125218;1098;65159;-77
2020/12/04 00:20:16;;;;;;;72.20;44.30;;;;;;;-0.44;83.05;97809.36;125240;1098;65120;-77
2020/12/04 00:22:42;;;;;;;71.53;45.37;;;;;;;-0.45;82.17;97816.37;124824;1099;65146;-77
2020/12/04 00:25:09;;;;;;;74.37;45.25;;;;;;;-0.48;82.78;97813.85;125227;1098;65213;-78
2020/12/04 00:27:35;;;;;;;66.93;41.87;;;;;;;-0.48;82.25;97826.94;124821;1099;65714;-78
2020/12/04 00:30:03;;;;;;;75.70;44.55;;;;;;;-0.50;82.26;97814.83;125181;1098;65243;-78
2020/12/04 00:32:29;;;;;;;69.97;44.13;;;;;;;-0.49;82.40;97824.41;124833;1099;65178;-78
2020/12/04 00:34:55;;;;;;;69.37;44.37;;;;;;;-0.50;83.05;97820.94;125156;1098;65226;-78
2020/12/04 00:37:22;;;;;;;72.40;44.43;;;;;;;-0.49;82.54;97821.78;124824;1100;65348;-78
2020/12/04 00:39:48;;;;;;;79.03;46.53;;;;;;;-0.52;82.92;97816.68;124832;1098;65178;-77
2020/12/04 00:42:15;;;;;;;71.43;44.10;;;;;;;-0.54;82.78;97810.66;124844;1099;65249;-78
2020/12/04 00:44:42;;;;;;;73.47;43.90;;;;;;;-0.55;82.46;97803.73;124855;1100;65171;-77
2020/12/04 00:47:08;;;;;;;69.30;42.63;;;;;;;-0.57;83.04;97803.78;125145;1098;65203;-77
2020/12/04 00:49:35;;;;;;;72.55;44.60;;;;;;;-0.58;82.60;97809.94;125138;1098;65195;-77
2020/12/04 00:52:01;;;;;;;66.87;42.67;;;;;;;-0.60;82.52;97817.00;125236;1098;65255;-77
2020/12/04 00:54:28;;;;;;;72.43;43.33;;;;;;;-0.60;82.56;97824.00;125182;1098;65133;-77
2020/12/04 00:56:54;;;;;;;77.37;45.53;;;;;;;-0.60;83.12;97819.61;125184;1099;65218;-77
2020/12/04 00:59:20;;;;;;;72.45;44.05;;;;;;;-0.60;83.33;97805.69;125184;1098;65598;-77
2020/12/04 01:01:47;;;;;;;71.87;44.30;;;;;;;-0.61;82.85;97806.58;125153;1098;65160;-78
2020/12/04 01:04:13;;;;;;;66.90;40.80;;;;;;;-0.63;82.74;97796.19;125192;1098;65144;-78
2020/12/04 01:06:40;;;;;;;69.77;40.30;;;;;;;-0.59;83.54;97807.38;125210;1099;65230;-78
2020/12/04 01:09:07;;;;;;;62.57;39.10;;;;;;;-0.59;83.27;97797.75;125232;1098;65162;-78
2020/12/04 01:11:34;;;;;;;62.37;39.30;;;;;;;-0.59;82.83;97802.14;125194;1098;65150;-77
2020/12/04 01:14:01;;;;;;;60.63;37.77;;;;;;;-0.57;83.36;97790.70;125200;1098;65166;-77
2020/12/04 01:16:27;;;;;;;58.87;37.40;;;;;;;-0.54;83.20;97782.72;125181;1098;65239;-78
2020/12/04 01:18:54;;;;;;;63.70;37.53;;;;;;;-0.52;83.88;97788.74;125150;1098;65201;-78
2020/12/04 01:21:20;;;;;;;62.20;37.53;;;;;;;-0.47;83.30;97784.17;124823;1098;65208;-78
2020/12/04 01:23:46;;;;;;;60.37;37.30;;;;;;;-0.44;83.91;97777.95;125213;1098;65175;-78
2020/12/04 01:26:13;;;;;;;56.55;35.40;;;;;;;-0.40;83.22;97776.05;125228;1098;65207;-78
2020/12/04 01:28:40;;;;;;;57.93;36.23;;;;;;;-0.37;83.17;97770.67;125188;1098;65781;-77
2020/12/04 01:31:09;;;;;;;61.23;36.30;;;;;;;-0.35;83.49;97761.00;124897;1098;65169;-77
2020/12/04 01:33:37;;;;;;;57.43;36.50;;;;;;;-0.32;83.32;97773.95;125278;1100;65150;-77
2020/12/04 01:36:04;;;;;;;60.00;35.67;;;;;;;-0.32;83.85;97758.25;124884;1100;65156;-78
2020/12/04 01:38:31;;;;;;;58.10;36.13;;;;;;;-0.31;84.04;97760.81;124866;1099;65268;-78
2020/12/04 01:41:01;;;;;;;56.97;34.97;;;;;;;-0.29;83.73;97756.37;124840;1099;65235;-78
2020/12/04 01:43:28;;;;;;;58.70;36.50;;;;;;;-0.27;83.57;97754.51;124796;1099;65246;-78
2020/12/04 01:45:57;;;;;;;57.60;35.70;;;;;;;-0.25;83.91;97759.69;125242;1098;65165;-77
2020/12/04 01:48:25;;;;;;;60.47;38.00;;;;;;;-0.24;83.91;97746.55;125193;1100;65173;-77
2020/12/04 01:50:52;;;;;;;55.23;35.23;;;;;;;-0.22;83.78;97749.92;125100;1098;65153;-78
2020/12/04 01:53:20;;;;;;;55.47;33.43;;;;;;;-0.21;83.19;97750.80;125221;1099;65309;-77
2020/12/04 01:55:46;;;;;;;56.43;34.80;;;;;;;-0.19;84.08;97738.47;125220;1098;65261;-77
2020/12/04 01:58:16;;;;;;;56.80;35.90;;;;;;;-0.15;84.31;97740.05;125159;1098;65074;-77
2020/12/04 02:00:44;;;;;;;;;;;;;;;-0.11;83.67;97718.03;125201;1098;65162;-78
2020/12/04 02:03:12;;;;;;;54.17;33.03;;;;;;;-0.07;83.61;97734.48;125140;1098;65131;-78
2020/12/04 02:05:55;;;;;;;55.30;34.53;;;;;;;-0.04;83.53;97739.57;125206;1098;65168;-78
2020/12/04 02:08:29;;;;;;;56.70;34.27;;;;;;;-0.04;83.65;97716.00;124846;1098;65141;-79
2020/12/04 02:11:18;;;;;;;58.87;34.73;;;;;;;-0.04;83.49;97695.05;125127;1099;65246;-79
2020/12/04 02:13:45;;;;;;;57.65;37.00;;;;;;;-0.02;83.40;97701.08;125242;1099;65140;-79
2020/12/04 02:16:15;;;;;;;59.43;36.73;;;;;;;-0.04;83.88;97711.61;125321;1098;65127;-78
2020/12/04 02:18:42;;;;;;;54.63;35.60;;;;;;;-0.06;83.81;97712.59;125204;1098;65192;-78
2020/12/04 02:21:09;;;;;;;55.27;34.77;;;;;;;-0.08;83.59;97703.95;125136;1098;65175;-78
2020/12/04 02:23:37;;;;;;;55.00;34.00;;;;;;;-0.10;84.05;97697.95;125215;1098;65235;-77
2020/12/04 02:26:06;;;;;;;51.97;35.60;;;;;;;-0.11;84.19;97693.63;125231;1098;65253;-77
2020/12/04 02:28:38;;;;;;;58.02;36.33;;;;;;;-0.13;83.91;97683.23;125182;1098;65166;-78
2020/12/04 02:31:05;;;;;;;58.27;37.30;;;;;;;-0.14;84.38;97683.29;124837;1099;65243;-78
2020/12/04 02:33:33;;;;;;;55.23;37.77;;;;;;;-0.14;84.15;97680.67;125264;1098;65514;-78
2020/12/04 02:36:00;;;;;;;56.70;35.27;;;;;;;-0.13;83.63;97680.61;125160;1098;65223;-78
2020/12/04 02:38:27;;;;;;;51.20;34.00;;;;;;;-0.11;84.12;97683.14;125172;1098;65146;-78
2020/12/04 02:40:55;;;;;;;53.53;34.23;;;;;;;-0.10;83.56;97684.86;125129;1098;65203;-77
2020/12/04 02:43:22;;;;;;;52.40;33.90;;;;;;;-0.10;84.14;97683.09;125163;1098;65275;-77
2020/12/04 02:45:50;;;;;;;50.03;31.87;;;;;;;-0.10;84.27;97692.72;125243;1098;65178;-77
2020/12/04 02:48:16;;;;;;;48.53;31.17;;;;;;;-0.10;84.00;97688.33;125186;1098;65093;-79
2020/12/04 02:50:43;;;;;;;50.30;29.20;;;;;;;-0.07;84.44;97682.95;125232;1099;65181;-78
2020/12/04 02:53:10;;;;;;;53.70;33.93;;;;;;;-0.07;84.21;97682.95;125168;1098;65169;-78
2020/12/04 02:55:36;;;;;;;54.67;33.07;;;;;;;-0.06;84.17;97691.64;125206;1098;65182;-78
2020/12/04 02:58:03;;;;;;;52.70;33.05;;;;;;;-0.06;84.09;97699.50;124819;1100;65751;-78
2020/12/04 03:00:30;;;;;;;55.20;33.40;;;;;;;-0.08;84.00;97690.86;125203;1099;65179;-77
2020/12/04 03:02:56;;;;;;;54.80;35.00;;;;;;;-0.08;83.73;97703.95;124821;1098;65143;-77
2020/12/04 03:05:22;;;;;;;52.90;33.97;;;;;;;-0.09;84.02;97702.27;125254;1098;65198;-77
2020/12/04 03:07:49;;;;;;;59.53;36.70;;;;;;;-0.11;83.60;97707.55;125222;1098;65237;-78
2020/12/04 03:10:15;;;;;;;56.80;36.77;;;;;;;-0.13;83.57;97698.95;125241;1098;65147;-78
2020/12/04 03:12:42;;;;;;;61.53;37.27;;;;;;;-0.13;83.98;97706.80;125250;1098;65130;-78
2020/12/04 03:15:09;;;;;;;57.87;36.97;;;;;;;-0.12;83.78;97707.64;124815;1100;65200;-78
2020/12/04 03:17:36;;;;;;;59.43;37.90;;;;;;;-0.12;83.48;97705.87;125282;1098;65309;-78
2020/12/04 03:20:04;;;;;;;62.50;40.00;;;;;;;-0.13;83.91;97691.09;124762;1098;65156;-78
2020/12/04 03:22:30;;;;;;;65.15;39.80;;;;;;;-0.15;84.22;97690.30;125241;1098;65232;-78
2020/12/04 03:24:56;;;;;;;62.00;39.43;;;;;;;-0.17;83.86;97681.66;125160;1098;65146;-78
2020/12/04 03:27:23;;;;;;;62.93;39.33;;;;;;;-0.19;83.85;97680.87;124862;1100;65243;-78
2020/12/04 03:29:49;;;;;;;65.00;42.03;;;;;;;-0.22;84.32;97679.23;125235;1098;65127;-78
2020/12/04 03:32:16;;;;;;;69.33;43.83;;;;;;;-0.22;83.60;97689.70;125176;1098;65672;-78
2020/12/04 03:34:42;;;;;;;67.80;43.55;;;;;;;-0.20;84.16;97696.66;124853;1099;65149;-77
2020/12/04 03:37:09;;;;;;;67.93;42.23;;;;;;;-0.18;83.92;97685.20;125249;1098;65153;-77
2020/12/04 03:39:35;;;;;;;63.77;40.27;;;;;;;-0.15;83.73;97678.98;125202;1099;65130;-78
2020/12/04 03:42:05;;;;;;;70.87;42.47;;;;;;;-0.13;84.25;97683.23;124862;1100;65322;-78
2020/12/04 03:44:32;;;;;;;;;;;;;;;-0.10;83.83;97685.71;125199;1098;65218;-77
2020/12/04 03:46:58;;;;;;;64.60;40.30;;;;;;;-0.09;84.35;97676.92;125183;1098;65146;-78
2020/12/04 03:49:25;;;;;;;63.67;40.47;;;;;;;-0.03;84.22;97675.79;125152;1098;65229;-78
2020/12/04 03:51:52;;;;;;;61.80;39.47;;;;;;;-0.02;84.53;97672.27;124817;1100;65141;-78
2020/12/04 03:54:18;;;;;;;59.90;37.97;;;;;;;-0.01;84.46;97669.56;124837;1100;65156;-78
2020/12/04 03:56:44;;;;;;;58.45;37.95;;;;;;;0.01;84.27;97682.60;125242;1098;65150;-78
2020/12/04 03:59:11;;;;;;;59.63;37.40;;;;;;;-0.01;83.89;97672.19;125156;1098;65238;-78
2020/12/04 04:01:37;;;;;;;65.00;40.50;;;;;;;0.00;83.82;97678.30;125137;1098;65220;-78
2020/12/04 04:04:03;;;;;;;54.85;36.05;;;;;;;-0.01;83.81;97658.24;124874;1099;65593;-77
2020/12/04 04:06:30;;;;;;;54.67;36.27;;;;;;;0.00;84.44;97670.44;125167;1098;65147;-78
2020/12/04 04:08:56;;;;;;;59.93;40.10;;;;;;;0.02;84.10;97672.97;124814;1099;65186;-77
2020/12/04 04:11:23;;;;;;;63.97;46.90;;;;;;;0.01;84.15;97674.74;125153;1098;65235;-78
2020/12/04 04:13:49;;;;;;;61.90;41.45;;;;;;;0.01;84.28;97673.91;125253;1098;65118;-78
2020/12/04 04:16:15;;;;;;;52.30;34.15;;;;;;;0.00;83.85;97665.20;125170;1098;65144;-78
2020/12/04 04:18:42;;;;;;;61.03;41.00;;;;;;;-0.01;84.06;97672.19;125175;1098;65153;-78
2020/12/04 04:21:10;;;;;;;64.53;48.20;;;;;;;-0.02;84.43;97674.89;125115;1098;65329;-78
2020/12/04 04:23:37;;;;;;;65.70;41.13;;;;;;;-0.01;83.99;97672.19;124817;1098;65214;-78
2020/12/04 04:26:04;;;;;;;61.00;38.93;;;;;;;-0.02;84.23;97673.11;125243;1098;65085;-78
2020/12/04 04:28:31;;;;;;;60.57;40.07;;;;;;;-0.05;84.39;97668.02;125190;1098;65242;-77
2020/12/04 04:30:57;;;;;;;64.53;39.23;;;;;;;-0.06;83.98;97676.77;125174;1098;65147;-78
2020/12/04 04:33:25;;;;;;;56.27;35.30;;;;;;;-0.04;84.68;97671.48;124777;1098;65377;-78
2020/12/04 04:35:51;;;;;;;59.40;37.73;;;;;;;-0.01;84.37;97669.56;125134;1098;65192;-76
2020/12/04 04:38:18;;;;;;;60.15;40.10;;;;;;;0.01;84.44;97672.12;125173;1098;65212;-78
2020/12/04 04:40:45;;;;;;;64.53;40.80;;;;;;;0.01;84.28;97669.51;124826;1098;65144;-77
2020/12/04 04:43:16;;;;;;;57.57;36.63;;;;;;;0.01;84.10;97661.65;125266;1098;65258;-77
2020/12/04 04:45:46;;;;;;;58.33;38.50;;;;;;;0.01;84.47;97664.27;125113;1098;65573;-78
2020/12/04 04:48:20;;;;;;;61.67;40.83;;;;;;;-0.01;84.00;97650.39;125177;1099;65154;-78
2020/12/04 04:50:47;;;;;;;64.17;40.70;;;;;;;-0.01;84.32;97653.84;125229;1098;65153;-78
2020/12/04 04:53:16;;;;;;;60.37;39.07;;;;;;;-0.01;83.81;97642.53;124824;1098;65221;-78
2020/12/04 04:55:43;;;;;;;56.57;35.90;;;;;;;-0.02;84.47;97651.32;125194;1100;65122;-78
2020/12/04 04:58:10;;;;;;;55.10;37.00;;;;;;;0.00;84.58;97644.25;125259;1098;65300;-78
2020/12/04 05:00:38;;;;;;;52.20;32.70;;;;;;;0.04;84.62;97655.42;125234;1098;65194;-78
2020/12/04 05:03:07;;;;;;;52.67;31.63;;;;;;;0.11;84.27;97651.61;125149;1098;65213;-77
2020/12/04 05:05:43;;;;;;;48.78;30.52;;;;;;;0.14;84.73;97657.54;124879;1100;65185;-78
2020/12/04 05:08:20;;;;;;;50.27;32.00;;;;;;;0.20;84.62;97661.64;125235;1098;65169;-78
2020/12/04 05:10:48;;;;;;;53.75;34.20;;;;;;;0.25;84.81;97669.30;125193;1098;65218;-78
2020/12/04 05:13:19;;;;;;;51.40;31.63;;;;;;;0.26;84.54;97661.34;125172;1099;65296;-78
2020/12/04 05:15:47;;;;;;;45.50;29.77;;;;;;;0.29;83.88;97655.11;125168;1098;65211;-78
2020/12/04 05:18:18;;;;;;;49.95;32.25;;;;;;;0.32;84.46;97645.36;125277;1098;65130;-78
2020/12/04 05:20:55;;;;;;;51.47;33.07;;;;;;;0.35;84.11;97645.20;125195;1099;65165;-79
2020/12/04 05:23:23;;;;;;;54.80;35.77;;;;;;;0.37;83.93;97647.73;125255;1098;65902;-78
2020/12/04 05:25:52;;;;;;;57.65;36.30;;;;;;;0.37;84.13;97650.36;125287;1098;65138;-78
2020/12/04 05:28:20;;;;;;;58.83;36.07;;;;;;;0.36;83.95;97646.05;125137;1098;65149;-79
2020/12/04 05:30:50;;;;;;;58.27;36.90;;;;;;;0.36;83.60;97651.29;125256;1098;65508;-78
2020/12/04 05:33:18;;;;;;;63.80;40.00;;;;;;;0.34;84.04;97643.52;125208;1098;65220;-76
2020/12/04 05:35:52;;;;;;;63.47;40.67;;;;;;;0.36;84.05;97643.43;125195;1098;65127;-77
2020/12/04 05:38:19;;;;;;;67.00;42.00;;;;;;;0.35;83.97;97642.59;125236;1098;65124;-78
2020/12/04 05:41:07;;;;;;;65.43;42.23;;;;;;;0.33;83.94;97640.95;124838;1098;65170;-78
2020/12/04 05:43:36;;;;;;;66.40;42.47;;;;;;;0.30;83.95;97635.88;125213;1098;65114;-78
2020/12/04 05:46:23;;;;;;;67.90;44.93;;;;;;;0.28;83.69;97641.17;125280;1098;65073;-78
2020/12/04 05:49:10;;;;;;;74.67;47.57;;;;;;;0.29;83.50;97650.75;125272;1098;65223;-77
2020/12/04 05:51:39;;;;;;;69.93;42.33;;;;;;;0.28;83.73;97642.95;125205;1098;65169;-79
2020/12/04 05:54:08;;;;;;;67.25;41.10;;;;;;;0.26;83.33;97656.11;125240;1098;65181;-79
2020/12/04 05:56:36;;;;;;;66.63;41.73;;;;;;;0.26;84.20;97652.64;125274;1098;65166;-79
2020/12/04 05:59:06;;;;;;;54.23;35.70;;;;;;;0.26;83.43;97650.86;125165;1098;65191;-79
2020/12/04 06:01:33;;;;;;;58.77;38.17;;;;;;;0.28;83.72;97651.65;125164;1098;65274;-78
2020/12/04 06:03:59;;;;;;;61.90;38.50;;;;;;;0.30;84.27;97649.81;125227;1099;65256;-78
2020/12/04 06:06:27;;;;;;;64.13;41.77;;;;;;;0.31;84.25;97656.73;125227;1098;65233;-77
2020/12/04 06:09:03;;;;;;;64.63;40.03;;;;;;;0.34;83.59;97668.84;125178;1098;65221;-78
2020/12/04 06:11:36;;;;;;;54.40;36.30;;;;;;;0.37;83.71;97669.58;125181;1098;65239;-77
2020/12/04 06:14:19;;;;;;;53.90;35.03;;;;;;;0.42;84.17;97659.73;125176;1099;65253;-78
2020/12/04 06:17:01;;;;;;;52.53;35.90;;;;;;;0.49;83.87;97675.99;125133;1098;65294;-77
2020/12/04 06:19:35;;;;;;;59.20;36.90;;;;;;;0.53;83.72;97669.70;125189;1098;65594;-77
2020/12/04 06:22:05;;;;;;;65.70;39.37;;;;;;;0.56;83.60;97669.55;125249;1098;65175;-78
2020/12/04 06:24:52;;;;;;;58.38;38.10;;;;;;;0.59;83.78;97671.17;125226;1098;65178;-77
2020/12/04 06:27:37;;;;;;;62.75;39.35;;;;;;;0.61;84.12;97659.69;125160;1098;65141;-78
2020/12/04 06:30:07;;;;;;;64.27;41.30;;;;;;;0.65;84.02;97648.11;125257;1098;65173;-78
2020/12/04 06:32:48;;;;;;;78.00;46.80;;;;;;;0.70;83.99;97662.78;124903;1100;65102;-77
2020/12/04 06:35:35;;;;;;;70.60;40.33;;;;;;;0.75;84.16;97666.88;125170;1099;65169;-77
2020/12/04 06:38:02;;;;;;;58.63;37.30;;;;;;;0.78;84.09;97671.13;125191;1098;65134;-77
2020/12/04 06:40:32;;;;;;;63.37;37.33;;;;;;;0.81;84.10;97681.45;125208;1098;65137;-76
2020/12/04 06:43:00;;;;;;;56.18;36.90;;;;;;;0.86;83.80;97674.22;124864;1100;65129;-76
2020/12/04 06:45:49;;;;;;;64.03;39.17;;;;;;;0.92;83.78;97668.66;125289;1098;65259;-76
2020/12/04 06:48:17;;;;;;;61.90;40.10;;;;;;;0.96;83.53;97683.34;125244;1098;65214;-78
2020/12/04 06:50:48;;;;;;;70.72;42.62;;;;;;;1.01;83.46;97678.71;125240;1098;65140;-78
2020/12/04 06:53:16;;;;;;;70.03;44.50;;;;;;;1.04;83.42;97686.42;125247;1098;65275;-77
2020/12/04 06:55:44;;;;;;;62.23;38.47;;;;;;;1.09;83.03;97692.30;125260;1098;65149;-77
2020/12/04 06:58:10;;;;;;;58.03;37.93;;;;;;;1.13;83.29;97692.14;124793;1099;65172;-79
2020/12/04 07:00:36;;;;;;;59.40;36.57;;;;;;;1.18;83.17;97703.25;125124;1098;65102;-78
2020/12/04 07:03:04;;;;;;;57.87;38.27;;;;;;;1.23;83.25;97706.50;125142;1098;65268;-77
2020/12/04 07:05:34;;;;;;;62.33;37.73;;;;;;;1.27;83.42;97701.03;124788;1098;65243;-77
2020/12/04 07:08:02;;;;;;;60.67;38.48;;;;;;;1.32;83.51;97703.43;125201;1098;65187;-77
2020/12/04 07:10:31;;;;;;;68.23;40.90;;;;;;;1.34;82.98;97704.18;125291;1099;65126;-78
2020/12/04 07:12:59;;;;;;;53.53;33.83;;;;;;;1.35;82.99;97703.27;125213;1099;65178;-77
2020/12/04 07:15:27;;;;;;;53.60;34.17;;;;;;;1.39;82.88;97706.58;125184;1098;65160;-78
2020/12/04 07:17:53;;;;;;;57.60;36.00;;;;;;;1.43;83.21;97695.02;125210;1098;65608;-78
2020/12/04 07:20:20;;;;;;;69.10;39.30;;;;;;;1.46;82.98;97703.56;125243;1098;65118;-78
2020/12/04 07:22:47;;;;;;;65.97;41.07;;;;;;;1.52;82.92;97710.27;125190;1098;65163;-79
2020/12/04 07:25:14;;;;;;;58.90;38.00;;;;;;;1.52;83.33;97705.87;125259;1098;65134;-78
2020/12/04 07:27:41;;;;;;;56.93;36.20;;;;;;;1.55;83.27;97686.48;125216;1098;65150;-78
2020/12/04 07:30:17;;;;;;;50.77;33.97;;;;;;;1.59;82.84;97680.16;125248;1098;65159;-78
2020/12/04 07:32:52;;;;;;;50.70;34.10;;;;;;;1.64;83.07;97685.18;125279;1098;65155;-78
2020/12/04 07:35:20;;;;;;;52.43;33.73;;;;;;;1.69;82.51;97673.50;124794;1099;65243;-78
2020/12/04 07:37:46;;;;;;;51.47;35.33;;;;;;;1.73;82.61;97671.55;124851;1099;65176;-79
2020/12/04 07:40:17;;;;;;;47.43;33.77;;;;;;;1.75;82.54;97675.80;125168;1098;65162;-77
2020/12/04 07:42:44;;;;;;;52.25;34.70;;;;;;;1.79;82.31;97666.00;125242;1098;65109;-77
2020/12/04 07:45:15;;;;;;;49.55;34.40;;;;;;;1.83;82.38;97650.92;125184;1098;65345;-77
2020/12/04 07:47:43;;;;;;;53.80;35.43;;;;;;;1.91;82.55;97654.82;124957;1099;65198;-77
2020/12/04 07:50:12;;;;;;;54.80;38.80;;;;;;;1.99;82.29;97659.66;125197;1100;65271;-78
2020/12/04 07:52:50;;;;;;;57.83;39.07;;;;;;;2.07;82.12;97669.77;125230;1098;65127;-78
2020/12/04 07:55:22;;;;;;;62.30;40.10;;;;;;;2.12;81.94;97667.74;125223;1098;65316;-78
2020/12/04 07:58:05;;;;;;;54.93;36.93;;;;;;;2.17;81.83;97674.44;125203;1098;65138;-78
2020/12/04 08:00:36;;;;;;;48.40;33.15;;;;;;;2.23;81.75;97669.78;125235;1098;65146;-76
2020/12/04 08:03:03;;;;;;;43.50;30.80;;;;;;;2.31;82.25;97670.20;125248;1098;65134;-78
2020/12/04 08:05:35;;;;;;;48.40;33.50;;;;;;;2.38;81.61;97664.53;125185;1099;65130;-78
2020/12/04 08:08:04;;;;;;;54.07;34.33;;;;;;;2.46;81.55;97669.37;125262;1098;65271;-77
2020/12/04 08:10:30;;;;;;;51.15;33.10;;;;;;;2.55;81.39;97681.98;125206;1098;65217;-77
2020/12/04 08:12:57;;;;;;;48.23;34.20;;;;;;;2.67;81.59;97671.74;124838;1100;65323;-77
2020/12/04 08:15:24;;;;;;;48.73;32.17;;;;;;;2.77;81.05;97673.77;125135;1098;65163;-78
2020/12/04 08:18:05;;;;;;;45.53;31.80;;;;;;;2.87;80.87;97681.99;125158;1098;65214;-77
2020/12/04 08:20:32;;;;;;;47.25;30.80;;;;;;;2.95;80.91;97669.24;125213;1098;65227;-78
2020/12/04 08:22:58;;;;;;;43.67;32.10;;;;;;;3.03;80.89;97669.64;125192;1098;65210;-78
2020/12/04 08:25:28;;;;;;;42.07;29.90;;;;;;;3.07;80.18;97679.04;124803;1099;65159;-78
2020/12/04 08:27:56;;;;;;;41.50;29.00;;;;;;;3.09;80.33;97681.59;125229;1098;65118;-77
2020/12/04 08:30:24;;;;;;;36.43;26.87;;;;;;;3.11;80.48;97684.13;125169;1098;65190;-77
2020/12/04 08:32:53;;;;;;;42.50;28.57;;;;;;;3.13;79.73;97682.26;124816;1100;65105;-78
2020/12/04 08:35:41;;;;;;;39.65;28.70;;;;;;;3.14;79.93;97690.08;125243;1098;65120;-78
2020/12/04 08:38:11;;;;;;;;;;;;;;;3.16;79.56;97672.42;125240;1098;65178;-77
2020/12/04 08:40:40;;;;;;;43.03;28.70;;;;;;;3.16;79.56;97690.84;125237;1098;65172;-77
2020/12/04 08:43:18;;;;;;;43.90;29.90;;;;;;;3.21;79.42;97703.72;124858;1100;65219;-77
2020/12/04 08:45:47;;;;;;;41.67;29.03;;;;;;;3.23;79.14;97697.43;125272;1098;65277;-78
2020/12/04 08:48:15;;;;;;;43.13;29.33;;;;;;;3.24;79.31;97703.56;125374;1098;65649;-77
2020/12/04 08:50:50;;;;;;;42.10;31.25;;;;;;;3.25;79.61;97697.35;125304;1098;65147;-78
2020/12/04 08:53:19;;;;;;;46.60;32.20;;;;;;;3.29;79.53;97698.85;125189;1098;65102;-77
2020/12/04 08:55:52;;;;;;;45.03;32.87;;;;;;;3.34;79.71;97696.80;125233;1098;65075;-77
2020/12/04 08:58:20;;;;;;;44.63;31.50;;;;;;;3.38;79.60;97694.86;125221;1099;65243;-77
2020/12/04 09:00:49;;;;;;;39.10;29.57;;;;;;;3.41;78.90;97684.98;125267;1098;65143;-78
2020/12/04 09:03:18;;;;;;;41.50;28.45;;;;;;;3.50;78.98;97686.21;125219;1098;65182;-77
2020/12/04 09:05:45;;;;;;;49.37;35.17;;;;;;;3.61;79.15;97683.80;125224;1098;65170;-78
2020/12/04 09:08:11;;;;;;;46.53;32.33;;;;;;;3.81;78.57;97673.84;125209;1099;65242;-78
2020/12/04 09:10:39;;;;;;;44.45;32.60;;;;;;;3.97;77.94;97664.05;125170;1098;65313;-77
2020/12/04 09:13:07;;;;;;;44.83;31.03;;;;;;;4.09;77.89;97660.66;125199;1098;65237;-79
2020/12/04 09:15:35;;;;;;;42.00;29.87;;;;;;;4.25;78.06;97649.17;125263;1098;65192;-78
2020/12/04 09:18:02;;;;;;;39.60;27.93;;;;;;;4.41;77.18;97639.33;125273;1098;65143;-78
2020/12/04 09:20:31;;;;;;;42.10;28.65;;;;;;;4.52;77.51;97644.77;125164;1098;65230;-79
2020/12/04 09:22:59;;;;;;;38.17;29.30;;;;;;;4.62;77.08;97656.42;124870;1100;65235;-78
2020/12/04 09:25:25;;;;;;;46.07;31.33;;;;;;;4.72;77.41;97654.05;125160;1098;65227;-78
2020/12/04 09:27:53;;;;;;;41.87;28.73;;;;;;;4.77;76.58;97635.28;125243;1098;65127;-78
2020/12/04 09:30:22;;;;;;;37.33;26.90;;;;;;;4.77;76.51;97628.20;125231;1098;65146;-77
2020/12/04 09:32:50;;;;;;;41.00;28.10;;;;;;;4.86;76.45;97644.38;125173;1098;65116;-79
2020/12/04 09:35:17;;;;;;;51.10;33.20;;;;;;;4.92;76.31;97636.89;125143;1098;65243;-79
2020/12/04 09:37:44;;;;;;;45.40;30.43;;;;;;;4.97;76.93;97636.59;124815;1098;65486;-77
2020/12/04 09:40:13;;;;;;;53.47;33.53;;;;;;;5.01;76.16;97654.78;125195;1099;65226;-78
2020/12/04 09:42:39;;;;;;;56.20;36.57;;;;;;;5.01;76.40;97644.22;125184;1098;65067;-77
2020/12/04 09:45:08;;;;;;;46.73;30.67;;;;;;;5.04;76.55;97630.80;125222;1099;65142;-78
2020/12/04 09:47:35;;;;;;;48.93;32.03;;;;;;;5.08;76.79;97643.80;125203;1098;65159;-80
2020/12/04 09:50:09;;;;;;;44.23;30.57;;;;;;;5.17;76.91;97630.84;125198;1098;65151;-78
2020/12/04 09:52:40;;;;;;;66.97;43.33;;;;;;;5.31;77.19;97637.83;125228;1098;65156;-78
2020/12/04 09:55:09;;;;;;;59.45;39.25;;;;;;;5.46;76.65;97631.52;125187;1098;66225;-77
2020/12/04 09:57:35;;;;;;;39.43;30.00;;;;;;;5.63;76.70;97624.22;125243;1098;65194;-77
2020/12/04 10:00:06;;;;;;;40.47;29.03;;;;;;;5.72;75.56;97618.31;125245;1098;65230;-77
2020/12/04 10:02:34;;;;;;;39.75;30.00;;;;;;;5.75;75.24;97626.03;125243;1098;65104;-77
2020/12/04 10:05:00;;;;;;;46.17;34.77;;;;;;;5.77;75.09;97618.01;125263;1098;65169;-78
2020/12/04 10:07:27;;;;;;;51.07;37.67;;;;;;;5.80;75.19;97615.98;125195;1098;65102;-78
2020/12/04 10:09:54;;;;;;;69.73;47.80;;;;;;;5.90;75.32;97616.20;125248;1099;65134;-77
2020/12/04 10:12:20;;;;;;;61.73;41.03;;;;;;;5.93;73.47;97608.91;125210;1098;65277;-78
2020/12/04 10:14:47;;;;;;;71.87;47.33;;;;;;;5.97;74.92;97606.89;125155;1099;65236;-78
2020/12/04 10:17:14;;;;;;;51.15;36.40;;;;;;;6.06;74.66;97606.25;125225;1098;65511;-78
2020/12/04 10:19:40;;;;;;;40.03;29.83;;;;;;;6.11;74.06;97587.42;125222;1098;65128;-78
2020/12/04 10:22:06;;;;;;;47.27;34.33;;;;;;;6.15;74.37;97583.59;125190;1098;65169;-78
2020/12/04 10:24:33;;;;;;;42.05;29.40;;;;;;;6.19;73.86;97570.97;125122;1098;65234;-78
2020/12/04 10:26:59;;;;;;;38.23;28.03;;;;;;;6.19;73.37;97558.62;124889;1098;65166;-84
2020/12/04 10:29:26;;;;;;;39.67;28.33;;;;;;;6.26;73.56;97543.97;125243;1098;65163;-78
2020/12/04 10:31:52;;;;;;;38.37;25.73;;;;;;;6.35;73.51;97551.25;125192;1098;65187;-84
2020/12/04 10:34:19;;;;;;;35.83;25.13;;;;;;;6.44;73.89;97544.43;124876;1099;65220;-77
2020/12/04 10:36:46;;;;;;;33.90;24.13;;;;;;;6.55;73.27;97536.53;125234;1098;65530;-77
2020/12/04 10:39:14;;;;;;;38.03;26.07;;;;;;;6.69;73.62;97532.02;125248;1098;65197;-77
2020/12/04 10:41:42;;;;;;;35.43;25.17;;;;;;;6.85;72.95;97507.91;125234;1098;65223;-78
2020/12/04 10:44:10;;;;;;;37.25;26.05;;;;;;;6.97;72.67;97502.50;125195;1098;65152;-78
2020/12/04 10:46:38;;;;;;;34.87;25.37;;;;;;;6.98;73.35;97503.38;125273;1099;65147;-77
2020/12/04 10:49:06;;;;;;;34.95;24.60;;;;;;;6.99;73.58;97505.88;125225;1098;65240;-78
2020/12/04 10:51:32;;;;;;;36.53;26.33;;;;;;;6.98;73.35;97506.86;125168;1098;65216;-78
2020/12/04 10:53:59;;;;;;;35.10;25.77;;;;;;;7.04;72.50;97502.89;125149;1098;65221;-78
2020/12/04 10:56:26;;;;;;;35.80;26.15;;;;;;;7.06;72.12;97511.57;125252;1098;65166;-79
2020/12/04 10:58:53;;;;;;;34.13;25.30;;;;;;;7.04;73.12;97519.62;125216;1098;65217;-78
2020/12/04 11:06:24;;;;;;;37.37;27.77;;;;;;;7.13;72.94;97510.12;125210;1098;65252;-78
2020/12/04 11:08:51;;;;;;;37.07;25.80;;;;;;;7.24;72.78;97507.51;125374;1098;65131;-82
2020/12/04 11:11:20;;;;;;;35.67;25.70;;;;;;;7.34;72.55;97504.97;124861;1100;65194;-81
2020/12/04 11:13:47;;;;;;;36.67;25.93;;;;;;;7.47;72.03;97500.39;124930;1098;65182;-82
2020/12/04 11:16:14;;;;;;;35.50;27.10;;;;;;;7.54;72.14;97500.77;125336;1099;65150;-82
2020/12/04 11:18:41;;;;;;;37.87;27.10;;;;;;;7.60;71.67;97497.62;125244;1098;65163;-82
2020/12/04 11:21:08;;;;;;;38.07;27.73;;;;;;;7.66;72.43;97491.86;125223;1099;65194;-82
2020/12/04 11:23:35;;;;;;;37.15;26.60;;;;;;;7.73;72.01;97505.46;125213;1098;65108;-82
2020/12/04 11:26:02;;;;;;;35.33;25.40;;;;;;;7.82;71.68;97499.44;125609;1098;65134;-83